Weather at Singapore Changi Airport

Public forecast

Using degrees Celsius for public forecast. Weather courtesy of forecast.io.

Current aviation weather report (METAR) for Singapore Changi Airport

Retrieved 2021/04/20 23:00 UTC (19 minutes ago):

WSSS 202300Z 15004KT 9999 FEW018 BKN300 28/26 Q1009 NOSIG

Aviation forecast (TAF) for Singapore Changi Airport

Retrieved 2021/04/20 18:10 UTC (5 hours ago):

TAF WSSS 201700Z 2018/2200 24005KT 9999 FEW015CB SCT020 TEMPO 2105/2108 3000 TSRA FEW012CB BKN015